sensor_id;sensor_type;location;lat;lon;timestamp;temperature;humidity
13794;DHT22;31160;49.500;7.772;2023-05-29T00:00:47;15.50;93.60
13794;DHT22;31160;49.500;7.772;2023-05-29T00:03:14;15.50;93.90
13794;DHT22;31160;49.500;7.772;2023-05-29T00:05:41;15.30;94.80
13794;DHT22;31160;49.500;7.772;2023-05-29T00:08:08;15.00;95.10
13794;DHT22;31160;49.500;7.772;2023-05-29T00:10:35;14.90;95.20
13794;DHT22;31160;49.500;7.772;2023-05-29T00:13:03;14.80;95.60
13794;DHT22;31160;49.500;7.772;2023-05-29T00:15:33;14.80;95.90
13794;DHT22;31160;49.500;7.772;2023-05-29T00:18:00;14.60;95.80
13794;DHT22;31160;49.500;7.772;2023-05-29T00:20:28;14.60;96.10
13794;DHT22;31160;49.500;7.772;2023-05-29T00:22:55;14.20;96.70
13794;DHT22;31160;49.500;7.772;2023-05-29T00:25:22;14.00;97.30
13794;DHT22;31160;49.500;7.772;2023-05-29T00:27:48;14.10;96.90
13794;DHT22;31160;49.500;7.772;2023-05-29T00:30:15;14.10;96.70
13794;DHT22;31160;49.500;7.772;2023-05-29T00:32:42;14.10;97.20
13794;DHT22;31160;49.500;7.772;2023-05-29T00:35:09;14.00;97.30
13794;DHT22;31160;49.500;7.772;2023-05-29T00:37:37;13.70;97.80
13794;DHT22;31160;49.500;7.772;2023-05-29T00:40:04;13.60;98.20
13794;DHT22;31160;49.500;7.772;2023-05-29T00:42:31;13.50;98.70
13794;DHT22;31160;49.500;7.772;2023-05-29T00:44:58;13.40;99.10
13794;DHT22;31160;49.500;7.772;2023-05-29T00:47:25;13.40;99.50
13794;DHT22;31160;49.500;7.772;2023-05-29T00:49:53;13.20;99.90
13794;DHT22;31160;49.500;7.772;2023-05-29T00:52:20;13.20;99.90
13794;DHT22;31160;49.500;7.772;2023-05-29T00:54:47;13.20;99.90
13794;DHT22;31160;49.500;7.772;2023-05-29T00:57:16;13.10;99.90
13794;DHT22;31160;49.500;7.772;2023-05-29T00:59:44;13.00;99.90
13794;DHT22;31160;49.500;7.772;2023-05-29T01:02:12;13.00;99.90
13794;DHT22;31160;49.500;7.772;2023-05-29T01:04:41;12.80;99.90
13794;DHT22;31160;49.500;7.772;2023-05-29T01:07:08;12.70;99.90
13794;DHT22;31160;49.500;7.772;2023-05-29T01:09:36;12.70;99.90
13794;DHT22;31160;49.500;7.772;2023-05-29T01:12:24;12.80;99.90
13794;DHT22;31160;49.500;7.772;2023-05-29T01:21:06;12.80;99.90
13794;DHT22;31160;49.500;7.772;2023-05-29T01:26:41;12.60;99.90
13794;DHT22;31160;49.500;7.772;2023-05-29T01:29:10;12.50;99.90
13794;DHT22;31160;49.500;7.772;2023-05-29T01:31:39;12.50;99.90
13794;DHT22;31160;49.500;7.772;2023-05-29T01:34:07;12.50;99.90
13794;DHT22;31160;49.500;7.772;2023-05-29T01:36:34;12.40;99.90
13794;DHT22;31160;49.500;7.772;2023-05-29T01:39:02;12.30;99.90
13794;DHT22;31160;49.500;7.772;2023-05-29T01:41:31;12.30;99.90
13794;DHT22;31160;49.500;7.772;2023-05-29T01:44:04;12.30;99.90
13794;DHT22;31160;49.500;7.772;2023-05-29T01:46:31;12.20;99.90
13794;DHT22;31160;49.500;7.772;2023-05-29T01:48:59;12.10;99.90
13794;DHT22;31160;49.500;7.772;2023-05-29T01:51:26;12.20;99.90
13794;DHT22;31160;49.500;7.772;2023-05-29T01:53:52;12.10;99.90
13794;DHT22;31160;49.500;7.772;2023-05-29T01:56:20;12.10;99.90
13794;DHT22;31160;49.500;7.772;2023-05-29T01:58:48;12.10;99.90
13794;DHT22;31160;49.500;7.772;2023-05-29T02:01:15;12.10;99.90
13794;DHT22;31160;49.500;7.772;2023-05-29T02:03:42;12.10;99.90
13794;DHT22;31160;49.500;7.772;2023-05-29T02:06:09;12.00;99.90
13794;DHT22;31160;49.500;7.772;2023-05-29T02:08:37;12.00;99.90
13794;DHT22;31160;49.500;7.772;2023-05-29T02:11:03;12.00;99.90
13794;DHT22;31160;49.500;7.772;2023-05-29T02:13:31;12.00;99.90
13794;DHT22;31160;49.500;7.772;2023-05-29T02:15:58;11.90;99.90
13794;DHT22;31160;49.500;7.772;2023-05-29T02:18:25;11.90;99.90
13794;DHT22;31160;49.500;7.772;2023-05-29T02:20:52;11.90;99.90
13794;DHT22;31160;49.500;7.772;2023-05-29T02:23:22;11.90;99.90
13794;DHT22;31160;49.500;7.772;2023-05-29T02:25:50;11.90;99.90
13794;DHT22;31160;49.500;7.772;2023-05-29T02:28:17;12.00;99.90
13794;DHT22;31160;49.500;7.772;2023-05-29T02:30:44;12.00;99.90
13794;DHT22;31160;49.500;7.772;2023-05-29T02:33:10;11.90;99.90
13794;DHT22;31160;49.500;7.772;2023-05-29T02:35:37;11.80;99.90
13794;DHT22;31160;49.500;7.772;2023-05-29T02:38:04;11.80;99.90
13794;DHT22;31160;49.500;7.772;2023-05-29T02:40:31;11.80;99.90
13794;DHT22;31160;49.500;7.772;2023-05-29T02:42:57;11.80;99.90
13794;DHT22;31160;49.500;7.772;2023-05-29T02:45:24;11.70;99.90
13794;DHT22;31160;49.500;7.772;2023-05-29T02:47:52;11.60;99.90
13794;DHT22;31160;49.500;7.772;2023-05-29T02:50:19;11.50;99.90
13794;DHT22;31160;49.500;7.772;2023-05-29T02:52:46;11.50;99.90
13794;DHT22;31160;49.500;7.772;2023-05-29T02:55:13;11.40;99.90
13794;DHT22;31160;49.500;7.772;2023-05-29T02:57:40;11.40;99.90
13794;DHT22;31160;49.500;7.772;2023-05-29T03:00:07;11.20;99.90
13794;DHT22;31160;49.500;7.772;2023-05-29T03:02:35;11.20;99.90
13794;DHT22;31160;49.500;7.772;2023-05-29T03:05:02;11.10;99.90
13794;DHT22;31160;49.500;7.772;2023-05-29T03:07:29;11.10;99.90
13794;DHT22;31160;49.500;7.772;2023-05-29T03:09:56;11.20;99.90
13794;DHT22;31160;49.500;7.772;2023-05-29T03:12:25;11.10;99.90
13794;DHT22;31160;49.500;7.772;2023-05-29T03:14:54;11.10;99.90
13794;DHT22;31160;49.500;7.772;2023-05-29T03:17:23;11.10;99.90
13794;DHT22;31160;49.500;7.772;2023-05-29T03:19:50;11.10;99.90
13794;DHT22;31160;49.500;7.772;2023-05-29T03:22:17;11.10;99.90
13794;DHT22;31160;49.500;7.772;2023-05-29T03:24:44;11.10;99.90
13794;DHT22;31160;49.500;7.772;2023-05-29T03:27:13;11.10;99.90
13794;DHT22;31160;49.500;7.772;2023-05-29T03:29:41;11.00;99.90
13794;DHT22;31160;49.500;7.772;2023-05-29T03:32:07;11.00;99.90
13794;DHT22;31160;49.500;7.772;2023-05-29T03:34:34;10.80;99.90
13794;DHT22;31160;49.500;7.772;2023-05-29T03:37:03;10.90;99.90
13794;DHT22;31160;49.500;7.772;2023-05-29T03:39:31;10.90;99.90
13794;DHT22;31160;49.500;7.772;2023-05-29T03:41:58;10.90;99.90
13794;DHT22;31160;49.500;7.772;2023-05-29T03:44:24;11.00;99.90
13794;DHT22;31160;49.500;7.772;2023-05-29T03:46:51;11.00;99.90
13794;DHT22;31160;49.500;7.772;2023-05-29T03:49:18;11.10;99.90
13794;DHT22;31160;49.500;7.772;2023-05-29T03:51:45;11.10;99.90
13794;DHT22;31160;49.500;7.772;2023-05-29T03:54:13;11.30;99.90
13794;DHT22;31160;49.500;7.772;2023-05-29T03:56:41;11.30;99.90
13794;DHT22;31160;49.500;7.772;2023-05-29T03:59:09;11.30;99.90
13794;DHT22;31160;49.500;7.772;2023-05-29T04:01:36;11.30;99.90
13794;DHT22;31160;49.500;7.772;2023-05-29T04:04:03;11.10;99.90
13794;DHT22;31160;49.500;7.772;2023-05-29T04:06:30;11.10;99.90
13794;DHT22;31160;49.500;7.772;2023-05-29T04:08:57;11.10;99.90
13794;DHT22;31160;49.500;7.772;2023-05-29T04:11:24;11.10;99.90
13794;DHT22;31160;49.500;7.772;2023-05-29T04:13:53;11.10;99.90
13794;DHT22;31160;49.500;7.772;2023-05-29T04:16:20;11.10;99.90
13794;DHT22;31160;49.500;7.772;2023-05-29T04:18:47;11.10;99.90
13794;DHT22;31160;49.500;7.772;2023-05-29T04:21:14;11.10;99.90
13794;DHT22;31160;49.500;7.772;2023-05-29T04:23:41;11.20;99.90
13794;DHT22;31160;49.500;7.772;2023-05-29T04:26:08;11.20;99.90
13794;DHT22;31160;49.500;7.772;2023-05-29T04:28:36;11.30;99.90
13794;DHT22;31160;49.500;7.772;2023-05-29T04:31:04;11.40;99.90
13794;DHT22;31160;49.500;7.772;2023-05-29T04:33:33;11.40;99.90
13794;DHT22;31160;49.500;7.772;2023-05-29T04:36:04;11.50;99.90
13794;DHT22;31160;49.500;7.772;2023-05-29T04:38:32;11.60;99.90
13794;DHT22;31160;49.500;7.772;2023-05-29T04:40:59;11.70;99.90
13794;DHT22;31160;49.500;7.772;2023-05-29T04:43:27;11.70;99.90
13794;DHT22;31160;49.500;7.772;2023-05-29T04:46:00;11.80;99.90
13794;DHT22;31160;49.500;7.772;2023-05-29T04:48:30;11.80;99.90
13794;DHT22;31160;49.500;7.772;2023-05-29T04:50:57;11.80;99.90
13794;DHT22;31160;49.500;7.772;2023-05-29T04:53:26;11.90;99.90
13794;DHT22;31160;49.500;7.772;2023-05-29T04:55:52;12.00;99.90
13794;DHT22;31160;49.500;7.772;2023-05-29T04:58:20;12.10;99.90
13794;DHT22;31160;49.500;7.772;2023-05-29T05:00:49;12.20;99.90
13794;DHT22;31160;49.500;7.772;2023-05-29T05:03:15;12.20;99.90
13794;DHT22;31160;49.500;7.772;2023-05-29T05:05:43;12.30;99.90
13794;DHT22;31160;49.500;7.772;2023-05-29T05:08:11;12.20;99.90
13794;DHT22;31160;49.500;7.772;2023-05-29T05:10:38;12.30;99.90
13794;DHT22;31160;49.500;7.772;2023-05-29T05:13:05;12.80;99.90
13794;DHT22;31160;49.500;7.772;2023-05-29T05:15:34;14.70;99.90
13794;DHT22;31160;49.500;7.772;2023-05-29T05:18:01;17.80;97.10
13794;DHT22;31160;49.500;7.772;2023-05-29T05:20:29;20.40;92.90
13794;DHT22;31160;49.500;7.772;2023-05-29T05:22:58;22.50;88.90
13794;DHT22;31160;49.500;7.772;2023-05-29T05:25:26;24.00;83.40
13794;DHT22;31160;49.500;7.772;2023-05-29T05:27:53;23.80;81.10
13794;DHT22;31160;49.500;7.772;2023-05-29T05:30:21;23.70;81.40
13794;DHT22;31160;49.500;7.772;2023-05-29T05:32:48;24.10;80.60
13794;DHT22;31160;49.500;7.772;2023-05-29T05:35:15;24.80;78.10
13794;DHT22;31160;49.500;7.772;2023-05-29T05:37:43;26.00;75.70
13794;DHT22;31160;49.500;7.772;2023-05-29T05:40:10;26.60;74.20
13794;DHT22;31160;49.500;7.772;2023-05-29T05:42:48;27.50;71.50
13794;DHT22;31160;49.500;7.772;2023-05-29T05:45:15;28.30;70.60
13794;DHT22;31160;49.500;7.772;2023-05-29T05:47:42;28.30;69.80
13794;DHT22;31160;49.500;7.772;2023-05-29T05:50:09;28.20;68.50
13794;DHT22;31160;49.500;7.772;2023-05-29T05:52:36;28.80;67.70
13794;DHT22;31160;49.500;7.772;2023-05-29T05:55:04;28.40;66.10
13794;DHT22;31160;49.500;7.772;2023-05-29T05:57:31;27.60;66.50
13794;DHT22;31160;49.500;7.772;2023-05-29T06:00:03;26.50;68.10
13794;DHT22;31160;49.500;7.772;2023-05-29T06:02:42;26.10;67.90
13794;DHT22;31160;49.500;7.772;2023-05-29T06:05:16;26.00;68.70
13794;DHT22;31160;49.500;7.772;2023-05-29T06:07:43;25.40;69.50
13794;DHT22;31160;49.500;7.772;2023-05-29T06:10:10;25.60;69.60
13794;DHT22;31160;49.500;7.772;2023-05-29T06:12:37;24.80;70.20
13794;DHT22;31160;49.500;7.772;2023-05-29T06:15:14;24.40;71.10
13794;DHT22;31160;49.500;7.772;2023-05-29T06:17:41;22.80;74.60
13794;DHT22;31160;49.500;7.772;2023-05-29T06:20:08;22.00;76.30
13794;DHT22;31160;49.500;7.772;2023-05-29T06:22:40;20.60;79.30
13794;DHT22;31160;49.500;7.772;2023-05-29T06:25:07;20.00;82.00
13794;DHT22;31160;49.500;7.772;2023-05-29T06:27:35;19.50;83.40
13794;DHT22;31160;49.500;7.772;2023-05-29T06:30:03;19.50;83.40
13794;DHT22;31160;49.500;7.772;2023-05-29T06:32:30;19.50;84.70
13794;DHT22;31160;49.500;7.772;2023-05-29T06:34:58;19.40;84.30
13794;DHT22;31160;49.500;7.772;2023-05-29T06:37:25;19.30;84.60
13794;DHT22;31160;49.500;7.772;2023-05-29T06:39:53;19.30;83.90
13794;DHT22;31160;49.500;7.772;2023-05-29T06:42:19;19.10;85.10
13794;DHT22;31160;49.500;7.772;2023-05-29T06:44:49;19.10;85.20
13794;DHT22;31160;49.500;7.772;2023-05-29T06:47:16;19.30;84.90
13794;DHT22;31160;49.500;7.772;2023-05-29T06:49:44;19.20;86.00
13794;DHT22;31160;49.500;7.772;2023-05-29T06:52:11;19.30;86.20
13794;DHT22;31160;49.500;7.772;2023-05-29T06:54:57;19.40;85.90
13794;DHT22;31160;49.500;7.772;2023-05-29T06:57:24;19.90;85.00
13794;DHT22;31160;49.500;7.772;2023-05-29T06:59:51;19.90;84.70
13794;DHT22;31160;49.500;7.772;2023-05-29T07:02:18;20.10;84.20
13794;DHT22;31160;49.500;7.772;2023-05-29T07:04:47;20.10;85.60
13794;DHT22;31160;49.500;7.772;2023-05-29T07:07:14;20.10;84.60
13794;DHT22;31160;49.500;7.772;2023-05-29T07:09:41;20.30;83.70
13794;DHT22;31160;49.500;7.772;2023-05-29T07:12:08;19.90;84.50
13794;DHT22;31160;49.500;7.772;2023-05-29T07:14:35;20.20;84.00
13794;DHT22;31160;49.500;7.772;2023-05-29T07:17:02;20.40;84.80
13794;DHT22;31160;49.500;7.772;2023-05-29T07:19:29;20.10;83.90
13794;DHT22;31160;49.500;7.772;2023-05-29T07:21:56;20.00;83.90
13794;DHT22;31160;49.500;7.772;2023-05-29T07:24:23;19.70;83.80
13794;DHT22;31160;49.500;7.772;2023-05-29T07:26:50;19.90;84.20
13794;DHT22;31160;49.500;7.772;2023-05-29T07:29:17;19.80;84.80
13794;DHT22;31160;49.500;7.772;2023-05-29T07:31:47;19.80;83.40
13794;DHT22;31160;49.500;7.772;2023-05-29T07:34:14;19.90;81.90
13794;DHT22;31160;49.500;7.772;2023-05-29T07:37:02;19.80;80.50
13794;DHT22;31160;49.500;7.772;2023-05-29T07:39:33;19.80;80.70
13794;DHT22;31160;49.500;7.772;2023-05-29T07:42:04;19.80;80.40
13794;DHT22;31160;49.500;7.772;2023-05-29T07:44:32;19.60;80.90
13794;DHT22;31160;49.500;7.772;2023-05-29T07:46:59;19.50;81.50
13794;DHT22;31160;49.500;7.772;2023-05-29T07:49:36;20.00;81.60
13794;DHT22;31160;49.500;7.772;2023-05-29T07:52:04;20.00;81.00
13794;DHT22;31160;49.500;7.772;2023-05-29T07:54:32;20.20;80.90
13794;DHT22;31160;49.500;7.772;2023-05-29T07:57:00;20.10;81.90
13794;DHT22;31160;49.500;7.772;2023-05-29T07:59:29;20.40;81.50
13794;DHT22;31160;49.500;7.772;2023-05-29T08:01:58;20.10;81.50
13794;DHT22;31160;49.500;7.772;2023-05-29T08:04:42;20.00;82.20
13794;DHT22;31160;49.500;7.772;2023-05-29T08:07:09;20.20;81.60
13794;DHT22;31160;49.500;7.772;2023-05-29T08:09:36;20.30;82.30
13794;DHT22;31160;49.500;7.772;2023-05-29T08:12:03;20.40;81.70
13794;DHT22;31160;49.500;7.772;2023-05-29T08:14:29;20.30;81.60
13794;DHT22;31160;49.500;7.772;2023-05-29T08:16:58;20.40;82.00
13794;DHT22;31160;49.500;7.772;2023-05-29T08:19:25;20.30;80.80
13794;DHT22;31160;49.500;7.772;2023-05-29T08:21:52;20.50;81.80
13794;DHT22;31160;49.500;7.772;2023-05-29T08:24:19;20.30;81.00
13794;DHT22;31160;49.500;7.772;2023-05-29T08:26:46;20.30;81.70
13794;DHT22;31160;49.500;7.772;2023-05-29T08:29:13;20.70;82.00
13794;DHT22;31160;49.500;7.772;2023-05-29T08:31:40;20.40;81.50
13794;DHT22;31160;49.500;7.772;2023-05-29T08:34:07;20.40;81.80
13794;DHT22;31160;49.500;7.772;2023-05-29T08:36:34;20.70;82.10
13794;DHT22;31160;49.500;7.772;2023-05-29T08:39:00;20.70;82.40
13794;DHT22;31160;49.500;7.772;2023-05-29T08:41:41;20.50;83.40
13794;DHT22;31160;49.500;7.772;2023-05-29T08:44:13;20.70;80.00
13794;DHT22;31160;49.500;7.772;2023-05-29T08:46:40;20.70;80.20
13794;DHT22;31160;49.500;7.772;2023-05-29T08:49:08;20.80;81.30
13794;DHT22;31160;49.500;7.772;2023-05-29T08:51:37;21.20;81.00
13794;DHT22;31160;49.500;7.772;2023-05-29T08:54:08;21.20;79.30
13794;DHT22;31160;49.500;7.772;2023-05-29T08:56:35;21.30;79.10
13794;DHT22;31160;49.500;7.772;2023-05-29T08:59:02;21.40;80.00
13794;DHT22;31160;49.500;7.772;2023-05-29T09:01:34;21.40;80.10
13794;DHT22;31160;49.500;7.772;2023-05-29T09:04:02;21.20;81.00
13794;DHT22;31160;49.500;7.772;2023-05-29T09:06:29;21.20;82.40
13794;DHT22;31160;49.500;7.772;2023-05-29T09:08:57;21.30;80.40
13794;DHT22;31160;49.500;7.772;2023-05-29T09:11:24;21.40;80.00
13794;DHT22;31160;49.500;7.772;2023-05-29T09:13:52;21.30;80.10
13794;DHT22;31160;49.500;7.772;2023-05-29T09:16:19;21.20;79.70
13794;DHT22;31160;49.500;7.772;2023-05-29T09:18:47;21.20;80.30
13794;DHT22;31160;49.500;7.772;2023-05-29T09:21:28;21.20;79.40
13794;DHT22;31160;49.500;7.772;2023-05-29T09:24:03;21.30;79.80
13794;DHT22;31160;49.500;7.772;2023-05-29T09:26:31;21.60;79.90
13794;DHT22;31160;49.500;7.772;2023-05-29T09:28:58;21.60;79.70
13794;DHT22;31160;49.500;7.772;2023-05-29T09:31:24;21.50;79.20
13794;DHT22;31160;49.500;7.772;2023-05-29T09:33:51;21.50;79.60
13794;DHT22;31160;49.500;7.772;2023-05-29T09:36:22;21.40;79.10
13794;DHT22;31160;49.500;7.772;2023-05-29T09:38:50;21.60;79.10
13794;DHT22;31160;49.500;7.772;2023-05-29T09:41:25;21.50;79.80
13794;DHT22;31160;49.500;7.772;2023-05-29T09:43:52;21.80;76.90
13794;DHT22;31160;49.500;7.772;2023-05-29T09:46:22;21.50;78.00
13794;DHT22;31160;49.500;7.772;2023-05-29T09:48:49;21.20;79.60
13794;DHT22;31160;49.500;7.772;2023-05-29T09:51:23;21.50;79.80
13794;DHT22;31160;49.500;7.772;2023-05-29T09:53:52;21.60;79.80
13794;DHT22;31160;49.500;7.772;2023-05-29T09:56:23;21.60;80.10
13794;DHT22;31160;49.500;7.772;2023-05-29T09:58:51;21.70;80.50
13794;DHT22;31160;49.500;7.772;2023-05-29T10:01:20;21.80;80.70
13794;DHT22;31160;49.500;7.772;2023-05-29T10:03:46;21.90;80.10
13794;DHT22;31160;49.500;7.772;2023-05-29T10:06:17;22.00;80.30
13794;DHT22;31160;49.500;7.772;2023-05-29T10:08:50;21.90;80.10
13794;DHT22;31160;49.500;7.772;2023-05-29T10:11:21;22.00;81.60
13794;DHT22;31160;49.500;7.772;2023-05-29T10:13:54;21.70;79.50
13794;DHT22;31160;49.500;7.772;2023-05-29T10:16:24;22.00;81.90
13794;DHT22;31160;49.500;7.772;2023-05-29T10:18:55;22.20;80.10
13794;DHT22;31160;49.500;7.772;2023-05-29T10:21:27;22.40;79.20
13794;DHT22;31160;49.500;7.772;2023-05-29T10:23:54;22.40;79.20
13794;DHT22;31160;49.500;7.772;2023-05-29T10:26:25;22.30;78.80
13794;DHT22;31160;49.500;7.772;2023-05-29T10:31:42;22.00;77.90
13794;DHT22;31160;49.500;7.772;2023-05-29T10:37:06;22.40;78.20
13794;DHT22;31160;49.500;7.772;2023-05-29T10:39:35;22.50;77.90
13794;DHT22;31160;49.500;7.772;2023-05-29T10:42:01;22.70;76.50
13794;DHT22;31160;49.500;7.772;2023-05-29T10:49:25;22.80;76.90
13794;DHT22;31160;49.500;7.772;2023-05-29T10:51:52;22.80;76.70
13794;DHT22;31160;49.500;7.772;2023-05-29T10:54:22;22.90;77.40
13794;DHT22;31160;49.500;7.772;2023-05-29T10:57:03;22.60;76.70
13794;DHT22;31160;49.500;7.772;2023-05-29T10:59:36;22.80;76.40
13794;DHT22;31160;49.500;7.772;2023-05-29T11:02:03;22.90;76.70
13794;DHT22;31160;49.500;7.772;2023-05-29T11:04:32;23.00;76.50
13794;DHT22;31160;49.500;7.772;2023-05-29T11:07:00;22.90;75.60
13794;DHT22;31160;49.500;7.772;2023-05-29T11:09:37;23.00;76.60
13794;DHT22;31160;49.500;7.772;2023-05-29T11:12:24;22.90;76.30
13794;DHT22;31160;49.500;7.772;2023-05-29T11:15:08;23.20;75.20
13794;DHT22;31160;49.500;7.772;2023-05-29T11:20:08;22.90;74.30
13794;DHT22;31160;49.500;7.772;2023-05-29T11:22:45;23.00;75.00
13794;DHT22;31160;49.500;7.772;2023-05-29T11:25:15;23.00;75.10
13794;DHT22;31160;49.500;7.772;2023-05-29T11:27:43;23.30;75.40
13794;DHT22;31160;49.500;7.772;2023-05-29T11:30:11;23.10;74.20
13794;DHT22;31160;49.500;7.772;2023-05-29T11:32:39;23.20;74.30
13794;DHT22;31160;49.500;7.772;2023-05-29T11:35:10;23.30;74.30
13794;DHT22;31160;49.500;7.772;2023-05-29T11:37:39;23.20;72.20
13794;DHT22;31160;49.500;7.772;2023-05-29T11:40:07;23.40;72.50
13794;DHT22;31160;49.500;7.772;2023-05-29T11:42:35;23.60;71.70
13794;DHT22;31160;49.500;7.772;2023-05-29T11:45:21;23.70;73.40
13794;DHT22;31160;49.500;7.772;2023-05-29T11:47:52;23.80;74.20
13794;DHT22;31160;49.500;7.772;2023-05-29T11:50:23;23.60;73.40
13794;DHT22;31160;49.500;7.772;2023-05-29T11:52:50;23.50;74.60
13794;DHT22;31160;49.500;7.772;2023-05-29T11:55:21;23.40;74.50
13794;DHT22;31160;49.500;7.772;2023-05-29T11:57:56;23.60;75.90
13794;DHT22;31160;49.500;7.772;2023-05-29T12:00:23;23.40;73.80
13794;DHT22;31160;49.500;7.772;2023-05-29T12:02:51;23.50;73.40
13794;DHT22;31160;49.500;7.772;2023-05-29T12:05:18;23.60;73.40
13794;DHT22;31160;49.500;7.772;2023-05-29T12:07:53;23.50;72.90
13794;DHT22;31160;49.500;7.772;2023-05-29T12:10:23;23.40;73.60
13794;DHT22;31160;49.500;7.772;2023-05-29T12:12:53;23.70;73.70
13794;DHT22;31160;49.500;7.772;2023-05-29T12:15:20;23.80;73.90
13794;DHT22;31160;49.500;7.772;2023-05-29T12:17:52;23.70;73.60
13794;DHT22;31160;49.500;7.772;2023-05-29T12:20:22;23.40;74.10
13794;DHT22;31160;49.500;7.772;2023-05-29T12:22:50;23.60;73.50
13794;DHT22;31160;49.500;7.772;2023-05-29T12:25:21;23.60;72.80
13794;DHT22;31160;49.500;7.772;2023-05-29T12:27:48;23.40;72.40
13794;DHT22;31160;49.500;7.772;2023-05-29T12:30:19;23.30;71.90
13794;DHT22;31160;49.500;7.772;2023-05-29T12:32:59;23.60;71.50
13794;DHT22;31160;49.500;7.772;2023-05-29T12:35:28;23.80;71.90
13794;DHT22;31160;49.500;7.772;2023-05-29T12:38:00;23.90;71.00
13794;DHT22;31160;49.500;7.772;2023-05-29T12:40:31;23.90;70.30
13794;DHT22;31160;49.500;7.772;2023-05-29T12:43:02;23.70;70.90
13794;DHT22;31160;49.500;7.772;2023-05-29T12:45:30;23.60;70.80
13794;DHT22;31160;49.500;7.772;2023-05-29T12:48:00;23.80;71.80
13794;DHT22;31160;49.500;7.772;2023-05-29T12:50:31;23.60;71.70
13794;DHT22;31160;49.500;7.772;2023-05-29T12:53:06;23.60;71.70
13794;DHT22;31160;49.500;7.772;2023-05-29T12:55:51;23.60;72.20
13794;DHT22;31160;49.500;7.772;2023-05-29T12:58:18;23.90;71.60
13794;DHT22;31160;49.500;7.772;2023-05-29T13:00:47;24.00;70.40
13794;DHT22;31160;49.500;7.772;2023-05-29T13:03:13;24.00;70.50
13794;DHT22;31160;49.500;7.772;2023-05-29T13:05:41;23.80;70.40
13794;DHT22;31160;49.500;7.772;2023-05-29T13:08:08;23.70;69.90
13794;DHT22;31160;49.500;7.772;2023-05-29T13:10:35;23.80;70.00
13794;DHT22;31160;49.500;7.772;2023-05-29T13:13:02;23.80;69.40
13794;DHT22;31160;49.500;7.772;2023-05-29T13:15:30;23.80;67.40
13794;DHT22;31160;49.500;7.772;2023-05-29T13:17:59;23.80;66.70
13794;DHT22;31160;49.500;7.772;2023-05-29T13:20:26;23.80;69.00
13794;DHT22;31160;49.500;7.772;2023-05-29T13:22:53;23.60;69.70
13794;DHT22;31160;49.500;7.772;2023-05-29T13:25:20;23.80;69.50
13794;DHT22;31160;49.500;7.772;2023-05-29T13:27:48;23.80;69.10
13794;DHT22;31160;49.500;7.772;2023-05-29T13:30:15;24.00;69.80
13794;DHT22;31160;49.500;7.772;2023-05-29T13:32:42;24.10;70.20
13794;DHT22;31160;49.500;7.772;2023-05-29T13:35:09;24.20;68.80
13794;DHT22;31160;49.500;7.772;2023-05-29T13:37:37;24.20;68.30
13794;DHT22;31160;49.500;7.772;2023-05-29T13:40:04;24.10;67.60
13794;DHT22;31160;49.500;7.772;2023-05-29T13:42:32;24.10;68.40
13794;DHT22;31160;49.500;7.772;2023-05-29T13:44:58;24.20;67.80
13794;DHT22;31160;49.500;7.772;2023-05-29T13:47:25;24.30;67.90
13794;DHT22;31160;49.500;7.772;2023-05-29T13:49:55;24.40;67.40
13794;DHT22;31160;49.500;7.772;2023-05-29T13:52:22;24.40;67.40
13794;DHT22;31160;49.500;7.772;2023-05-29T13:54:49;24.30;67.50
13794;DHT22;31160;49.500;7.772;2023-05-29T13:57:16;24.10;67.20
13794;DHT22;31160;49.500;7.772;2023-05-29T13:59:42;24.10;67.50
13794;DHT22;31160;49.500;7.772;2023-05-29T14:02:09;24.20;67.40
13794;DHT22;31160;49.500;7.772;2023-05-29T14:04:36;24.10;66.60
13794;DHT22;31160;49.500;7.772;2023-05-29T14:07:05;23.90;66.90
13794;DHT22;31160;49.500;7.772;2023-05-29T14:09:32;24.00;66.90
13794;DHT22;31160;49.500;7.772;2023-05-29T14:11:59;24.20;67.30
13794;DHT22;31160;49.500;7.772;2023-05-29T14:14:26;24.20;67.00
13794;DHT22;31160;49.500;7.772;2023-05-29T14:16:53;24.30;67.70
13794;DHT22;31160;49.500;7.772;2023-05-29T14:19:22;24.20;67.60
13794;DHT22;31160;49.500;7.772;2023-05-29T14:21:50;24.10;67.30
13794;DHT22;31160;49.500;7.772;2023-05-29T14:24:17;24.10;68.60
13794;DHT22;31160;49.500;7.772;2023-05-29T14:26:45;24.40;67.80
13794;DHT22;31160;49.500;7.772;2023-05-29T14:29:14;24.40;67.10
13794;DHT22;31160;49.500;7.772;2023-05-29T14:31:42;24.60;67.80
13794;DHT22;31160;49.500;7.772;2023-05-29T14:34:11;24.40;67.60
13794;DHT22;31160;49.500;7.772;2023-05-29T14:36:38;24.40;67.90
13794;DHT22;31160;49.500;7.772;2023-05-29T14:39:05;24.40;67.80
13794;DHT22;31160;49.500;7.772;2023-05-29T14:41:32;24.20;67.60
13794;DHT22;31160;49.500;7.772;2023-05-29T14:44:00;24.40;67.80
13794;DHT22;31160;49.500;7.772;2023-05-29T14:46:27;24.60;67.00
13794;DHT22;31160;49.500;7.772;2023-05-29T14:48:58;24.60;67.10
13794;DHT22;31160;49.500;7.772;2023-05-29T14:51:26;24.60;67.60
13794;DHT22;31160;49.500;7.772;2023-05-29T14:53:53;24.60;67.50
13794;DHT22;31160;49.500;7.772;2023-05-29T14:56:20;24.60;68.40
13794;DHT22;31160;49.500;7.772;2023-05-29T14:58:46;24.40;67.80
13794;DHT22;31160;49.500;7.772;2023-05-29T15:01:17;24.10;67.90
13794;DHT22;31160;49.500;7.772;2023-05-29T15:03:44;24.00;67.30
13794;DHT22;31160;49.500;7.772;2023-05-29T15:06:11;24.00;67.70
13794;DHT22;31160;49.500;7.772;2023-05-29T15:08:39;24.20;68.80
13794;DHT22;31160;49.500;7.772;2023-05-29T15:11:08;24.20;68.60
13794;DHT22;31160;49.500;7.772;2023-05-29T15:13:36;24.20;68.50
13794;DHT22;31160;49.500;7.772;2023-05-29T15:16:02;24.20;68.20
13794;DHT22;31160;49.500;7.772;2023-05-29T15:18:30;24.00;69.30
13794;DHT22;31160;49.500;7.772;2023-05-29T15:20:57;24.10;69.60
13794;DHT22;31160;49.500;7.772;2023-05-29T15:23:25;24.10;69.50
13794;DHT22;31160;49.500;7.772;2023-05-29T15:25:53;24.00;70.50
13794;DHT22;31160;49.500;7.772;2023-05-29T15:28:20;24.20;70.50
13794;DHT22;31160;49.500;7.772;2023-05-29T15:30:47;24.10;70.80
13794;DHT22;31160;49.500;7.772;2023-05-29T15:33:14;24.00;70.70
13794;DHT22;31160;49.500;7.772;2023-05-29T15:35:41;24.00;70.30
13794;DHT22;31160;49.500;7.772;2023-05-29T15:38:10;24.10;70.60
13794;DHT22;31160;49.500;7.772;2023-05-29T15:40:39;24.30;70.40
13794;DHT22;31160;49.500;7.772;2023-05-29T15:43:08;24.30;69.30
13794;DHT22;31160;49.500;7.772;2023-05-29T15:45:36;24.30;69.50
13794;DHT22;31160;49.500;7.772;2023-05-29T15:48:04;24.40;69.20
13794;DHT22;31160;49.500;7.772;2023-05-29T15:50:31;24.40;69.10
13794;DHT22;31160;49.500;7.772;2023-05-29T15:52:58;24.20;68.60
13794;DHT22;31160;49.500;7.772;2023-05-29T15:55:24;24.20;69.10
13794;DHT22;31160;49.500;7.772;2023-05-29T15:57:51;24.10;69.80
13794;DHT22;31160;49.500;7.772;2023-05-29T16:00:18;24.00;69.80